createdAt,value
2019-04-27T00:02:27.743Z,14.43
2019-04-27T00:05:03.654Z,13.60
2019-04-27T00:07:36.865Z,14.80
2019-04-27T00:10:25.293Z,14.95
2019-04-27T00:12:57.169Z,15.15
2019-04-27T00:15:41.291Z,15.30
2019-04-27T00:18:13.971Z,17.12
2019-04-27T00:20:43.606Z,14.90
2019-04-27T00:23:19.594Z,15.90
2019-04-27T00:25:48.378Z,16.15
2019-04-27T00:28:16.844Z,17.45
2019-04-27T00:30:45.287Z,18.70
2019-04-27T00:33:13.792Z,17.67
2019-04-27T00:35:43.913Z,18.10
2019-04-27T00:38:19.731Z,17.60
2019-04-27T00:40:50.142Z,16.52
2019-04-27T00:43:18.658Z,18.75
2019-04-27T00:45:47.463Z,19.05
2019-04-27T00:48:15.968Z,19.92
2019-04-27T00:50:59.300Z,19.12
2019-04-27T00:53:27.750Z,17.55
2019-04-27T00:55:57.987Z,18.50
2019-04-27T00:58:46.606Z,17.70
2019-04-27T01:01:34.845Z,17.70
2019-04-27T01:04:07.923Z,17.37
2019-04-27T01:06:36.450Z,18.50
2019-04-27T01:09:08.426Z,18.67
2019-04-27T01:11:37.344Z,17.73
2019-04-27T01:14:05.922Z,17.67
2019-04-27T01:16:34.568Z,16.85
2019-04-27T01:19:02.751Z,15.20
2019-04-27T01:21:31.306Z,14.80
2019-04-27T01:24:00.081Z,15.53
2019-04-27T01:26:29.924Z,16.07
2019-04-27T01:29:03.059Z,14.15
2019-04-27T01:31:31.690Z,15.72
2019-04-27T01:34:00.158Z,15.23
2019-04-27T01:36:29.168Z,15.50
2019-04-27T01:38:59.538Z,14.58
2019-04-27T01:41:29.148Z,14.85
2019-04-27T01:43:59.144Z,14.50
2019-04-27T01:46:29.436Z,12.85
2019-04-27T01:48:59.103Z,13.13
2019-04-27T01:51:29.329Z,13.68
2019-04-27T01:53:59.403Z,13.40
2019-04-27T01:56:29.383Z,14.33
2019-04-27T01:58:59.539Z,14.30
2019-04-27T02:01:41.600Z,13.20
2019-04-27T02:04:27.150Z,14.50
2019-04-27T02:07:00.763Z,13.20
2019-04-27T02:09:29.276Z,13.78
2019-04-27T02:11:59.161Z,14.00
2019-04-27T02:14:28.811Z,13.62
2019-04-27T02:17:18.796Z,13.45
2019-04-27T02:19:49.428Z,15.00
2019-04-27T02:22:18.691Z,12.30
2019-04-27T02:24:49.231Z,13.80
2019-04-27T02:27:19.491Z,12.75
2019-04-27T02:29:50.462Z,12.33
2019-04-27T02:32:21.097Z,12.78
2019-04-27T02:34:51.578Z,12.93
2019-04-27T02:37:20.398Z,11.73
2019-04-27T02:39:49.999Z,14.43
2019-04-27T02:42:20.203Z,11.73
2019-04-27T02:44:49.498Z,12.37
2019-04-27T02:47:20.790Z,14.10
2019-04-27T02:49:50.795Z,14.20
2019-04-27T02:52:26.559Z,11.50
2019-04-27T02:54:55.409Z,11.88
2019-04-27T02:57:24.226Z,11.73
2019-04-27T02:59:52.761Z,11.85
2019-04-27T03:02:25.854Z,10.20
2019-04-27T03:04:54.636Z,10.40
2019-04-27T03:07:23.123Z,11.90
2019-04-27T03:09:51.977Z,10.43
2019-04-27T03:12:22.420Z,9.30
2019-04-27T03:14:55.898Z,10.90
2019-04-27T03:17:26.498Z,10.05
2019-04-27T03:19:59.903Z,11.65
2019-04-27T03:22:30.147Z,9.63
2019-04-27T03:25:10.184Z,10.58
2019-04-27T03:27:41.162Z,10.28
2019-04-27T03:30:14.011Z,9.93
2019-04-27T03:32:43.626Z,9.88
2019-04-27T03:35:13.500Z,9.40
2019-04-27T03:37:42.691Z,10.35
2019-04-27T03:40:11.490Z,11.03
2019-04-27T03:42:42.077Z,10.40
2019-04-27T03:45:11.192Z,10.10
2019-04-27T03:47:40.596Z,10.15
2019-04-27T03:50:12.352Z,10.15
2019-04-27T03:52:54.909Z,9.98
2019-04-27T03:55:25.132Z,10.13
2019-04-27T03:58:00.108Z,9.73
2019-04-27T04:00:32.860Z,8.90
2019-04-27T04:03:01.344Z,10.15
2019-04-27T04:05:30.157Z,9.38
2019-04-27T04:08:00.467Z,10.03
2019-04-27T04:10:30.930Z,11.43
2019-04-27T04:13:16.176Z,9.50
2019-04-27T04:15:49.557Z,9.50
2019-04-27T04:18:19.732Z,8.88
2019-04-27T04:20:50.379Z,9.30
2019-04-27T04:23:20.455Z,9.08
2019-04-27T04:25:49.908Z,8.65
2019-04-27T04:28:19.933Z,8.45
2019-04-27T04:30:50.117Z,8.25
2019-04-27T04:33:20.568Z,7.80
2019-04-27T04:35:49.942Z,8.28
2019-04-27T04:38:20.609Z,8.00
2019-04-27T04:40:50.559Z,6.95
2019-04-27T04:43:20.702Z,6.83
2019-04-27T04:46:09.792Z,5.75
2019-04-27T04:48:36.470Z,6.85
2019-04-27T04:51:04.964Z,5.83
2019-04-27T04:53:33.839Z,5.05
2019-04-27T04:56:02.273Z,5.78
2019-04-27T04:58:31.099Z,5.00
2019-04-27T05:01:01.786Z,4.25
2019-04-27T05:03:30.388Z,4.58
2019-04-27T05:05:59.206Z,5.35
2019-04-27T05:08:29.128Z,5.00
2019-04-27T05:10:59.645Z,5.20
2019-04-27T05:13:29.339Z,4.67
2019-04-27T05:15:58.900Z,4.70
2019-04-27T05:18:27.186Z,4.67
2019-04-27T05:20:58.582Z,4.20
2019-04-27T05:23:28.659Z,4.20
2019-04-27T05:25:59.180Z,3.93
2019-04-27T05:28:27.214Z,4.07
2019-04-27T05:30:55.411Z,4.37
2019-04-27T05:33:23.631Z,4.03
2019-04-27T05:35:51.807Z,3.43
2019-04-27T05:38:19.984Z,3.70
2019-04-27T05:40:49.899Z,3.77
2019-04-27T05:43:19.734Z,4.57
2019-04-27T05:46:05.902Z,4.27
2019-04-27T05:48:35.690Z,4.10
2019-04-27T05:51:03.862Z,4.27
2019-04-27T05:53:32.027Z,4.10
2019-04-27T05:56:00.208Z,3.90
2019-04-27T05:58:29.008Z,3.90
2019-04-27T06:00:59.290Z,3.90
2019-04-27T06:03:29.441Z,3.80
2019-04-27T06:05:57.038Z,4.30
2019-04-27T06:08:25.521Z,4.13
2019-04-27T06:10:54.040Z,3.63
2019-04-27T06:13:22.596Z,3.47
2019-04-27T06:15:50.772Z,3.33
2019-04-27T06:18:20.647Z,4.17
2019-04-27T06:20:54.981Z,3.40
2019-04-27T06:23:21.040Z,3.00
2019-04-27T06:25:49.361Z,3.27
2019-04-27T06:28:19.075Z,3.10
2019-04-27T06:30:49.137Z,3.10
2019-04-27T06:33:28.016Z,3.50
2019-04-27T06:35:49.459Z,3.87
2019-04-27T06:38:19.036Z,3.10
2019-04-27T06:40:48.936Z,3.30
2019-04-27T06:43:18.904Z,3.40
2019-04-27T06:45:48.820Z,3.50
2019-04-27T06:48:19.314Z,2.80
2019-04-27T06:50:48.998Z,3.10
2019-04-27T06:53:19.037Z,2.60
2019-04-27T06:55:49.526Z,2.80
2019-04-27T06:58:19.986Z,3.10
2019-04-27T07:00:49.705Z,3.10
2019-04-27T07:03:18.863Z,3.10
2019-04-27T07:05:48.680Z,2.77
2019-04-27T07:08:36.614Z,2.80
2019-04-27T07:11:04.991Z,2.77
2019-04-27T07:13:33.204Z,3.70
2019-04-27T07:16:01.730Z,2.70
2019-04-27T07:18:30.207Z,3.10
2019-04-27T07:20:58.841Z,3.17
2019-04-27T07:23:29.107Z,2.90
2019-04-27T07:25:56.891Z,2.90
2019-04-27T07:28:25.073Z,3.30
2019-04-27T07:30:53.233Z,2.87
2019-04-27T07:33:21.428Z,3.10
2019-04-27T07:35:49.915Z,2.77
2019-04-27T07:38:19.225Z,2.77
2019-04-27T07:40:48.896Z,3.00
2019-04-27T07:43:25.288Z,3.40
2019-04-27T07:45:53.773Z,3.53
2019-04-27T07:48:22.290Z,2.80
2019-04-27T07:50:50.766Z,2.90
2019-04-27T07:53:19.433Z,3.10
2019-04-27T07:55:49.426Z,3.00
2019-04-27T07:58:20.580Z,3.37
2019-04-27T08:00:49.157Z,3.73
2019-04-27T08:03:19.548Z,2.60
2019-04-27T08:05:49.084Z,3.13
2019-04-27T08:08:18.985Z,3.30
2019-04-27T08:10:50.063Z,3.10
2019-04-27T08:13:19.364Z,4.13
2019-04-27T08:15:49.621Z,3.40
2019-04-27T08:18:18.929Z,3.20
2019-04-27T08:20:49.130Z,3.57
2019-04-27T08:23:19.431Z,4.07
2019-04-27T08:25:48.932Z,2.90
2019-04-27T08:28:28.768Z,3.43
2019-04-27T08:31:14.191Z,3.30
2019-04-27T08:33:42.785Z,3.40
2019-04-27T08:36:10.999Z,3.63
2019-04-27T08:38:39.522Z,3.57
2019-04-27T08:41:09.006Z,3.77
2019-04-27T08:43:38.992Z,3.10
2019-04-27T08:46:08.788Z,3.83
2019-04-27T08:48:39.341Z,3.90
2019-04-27T08:51:09.407Z,3.10
2019-04-27T08:53:39.618Z,3.20
2019-04-27T08:56:09.368Z,3.90
2019-04-27T08:58:38.632Z,3.70
2019-04-27T09:01:09.990Z,3.63
2019-04-27T09:03:37.402Z,3.53
2019-04-27T09:06:09.047Z,3.50
2019-04-27T09:08:41.798Z,4.63
2019-04-27T09:11:11.960Z,4.00
2019-04-27T09:13:44.906Z,3.70
2019-04-27T09:16:18.626Z,3.43
2019-04-27T09:18:49.809Z,4.07
2019-04-27T09:21:19.165Z,3.63
2019-04-27T09:23:48.884Z,4.30
2019-04-27T09:26:18.584Z,4.23
2019-04-27T09:28:49.167Z,4.20
2019-04-27T09:31:17.134Z,4.23
2019-04-27T09:33:45.296Z,4.47
2019-04-27T09:36:13.551Z,4.37
2019-04-27T09:38:42.106Z,4.53
2019-04-27T09:41:10.629Z,4.60
2019-04-27T09:43:39.116Z,5.80
2019-04-27T09:46:07.309Z,5.50
2019-04-27T09:48:36.214Z,5.50
2019-04-27T09:51:06.405Z,5.70
2019-04-27T09:53:36.400Z,5.80
2019-04-27T09:56:05.874Z,6.20
2019-04-27T09:58:34.137Z,6.47
2019-04-27T10:01:02.707Z,7.63
2019-04-27T10:03:31.263Z,6.90
2019-04-27T10:05:59.934Z,7.00
2019-04-27T10:08:28.088Z,6.50
2019-04-27T10:10:56.776Z,6.20
2019-04-27T10:13:25.648Z,6.53
2019-04-27T10:16:01.961Z,6.60
2019-04-27T10:18:33.492Z,7.60
2019-04-27T10:21:02.374Z,7.60
2019-04-27T10:23:30.963Z,7.13
2019-04-27T10:25:59.562Z,6.33
2019-04-27T10:28:27.793Z,6.83
2019-04-27T10:30:56.271Z,6.63
2019-04-27T10:33:26.046Z,6.10
2019-04-27T10:35:56.289Z,5.20
2019-04-27T10:38:25.889Z,5.73
2019-04-27T10:40:54.664Z,5.57
2019-04-27T10:43:23.235Z,6.37
2019-04-27T10:45:51.735Z,6.00
2019-04-27T10:48:20.323Z,5.20
2019-04-27T10:50:48.866Z,5.77
2019-04-27T10:53:17.409Z,6.37
2019-04-27T10:55:46.398Z,5.50
2019-04-27T10:58:14.746Z,6.10
2019-04-27T11:00:44.962Z,5.60
2019-04-27T11:03:16.560Z,6.50
2019-04-27T11:05:52.468Z,6.70
2019-04-27T11:08:21.056Z,6.43
2019-04-27T11:10:49.593Z,6.10
2019-04-27T11:13:17.783Z,6.33
2019-04-27T11:15:46.410Z,6.90
2019-04-27T11:18:16.539Z,7.17
2019-04-27T11:20:46.328Z,6.30
2019-04-27T11:23:16.397Z,5.93
2019-04-27T11:25:46.677Z,6.40
2019-04-27T11:28:15.732Z,6.60
2019-04-27T11:30:44.028Z,6.90
2019-04-27T11:33:12.679Z,6.40
2019-04-27T11:35:42.795Z,6.10
2019-04-27T11:38:11.401Z,5.47
2019-04-27T11:40:42.723Z,6.03
2019-04-27T11:43:11.230Z,5.43
2019-04-27T11:45:41.138Z,5.90
2019-04-27T11:48:09.699Z,5.57
2019-04-27T11:50:38.182Z,5.70
2019-04-27T11:53:19.441Z,5.20
2019-04-27T11:55:36.965Z,6.17
2019-04-27T11:58:06.562Z,54.27
2019-04-27T12:00:37.513Z,12.27
2019-04-27T12:03:06.757Z,6.27
2019-04-27T12:05:36.296Z,7.77
2019-04-27T12:08:06.076Z,6.50
2019-04-27T12:10:36.178Z,5.93
2019-04-27T12:13:05.449Z,7.87
2019-04-27T12:15:36.105Z,4.67
2019-04-27T12:18:08.974Z,2.70
2019-04-27T12:20:35.873Z,2.00
2019-04-27T12:23:06.345Z,2.27
2019-04-27T12:25:37.092Z,2.70
2019-04-27T12:28:11.491Z,5.87
2019-04-27T12:30:44.340Z,7.00
2019-04-27T12:33:12.965Z,2.60
2019-04-27T12:35:41.154Z,2.50
2019-04-27T12:38:09.363Z,2.50
2019-04-27T12:40:37.591Z,2.80
2019-04-27T12:43:05.811Z,2.77
2019-04-27T12:45:34.089Z,2.33
2019-04-27T12:48:02.322Z,3.10
2019-04-27T12:50:30.497Z,3.53
2019-04-27T12:53:16.796Z,2.87
2019-04-27T12:55:49.988Z,3.67
2019-04-27T12:58:40.443Z,3.57
2019-04-27T13:01:15.895Z,15.07
2019-04-27T13:03:46.570Z,6.20
2019-04-27T13:06:14.777Z,4.10
2019-04-27T13:08:43.417Z,9.10
2019-04-27T13:11:12.019Z,2.80
2019-04-27T13:13:40.252Z,3.43
2019-04-27T13:16:08.850Z,3.13
2019-04-27T13:18:37.404Z,3.10
2019-04-27T13:21:05.581Z,3.53
2019-04-27T13:23:34.261Z,2.67
2019-04-27T13:26:02.449Z,2.60
2019-04-27T13:28:30.690Z,3.03
2019-04-27T13:30:59.227Z,2.43
2019-04-27T13:33:27.385Z,3.10
2019-04-27T13:36:00.446Z,2.97
2019-04-27T13:38:33.800Z,3.20
2019-04-27T13:41:06.120Z,2.93
2019-04-27T13:43:36.308Z,2.93
2019-04-27T13:46:10.823Z,3.00
2019-04-27T13:48:57.300Z,3.00
2019-04-27T13:51:33.389Z,2.77
2019-04-27T13:54:14.071Z,2.90
2019-04-27T13:56:32.244Z,2.37
2019-04-27T13:59:01.192Z,2.70
2019-04-27T14:01:30.314Z,2.63
2019-04-27T14:03:58.792Z,2.60
2019-04-27T14:06:27.356Z,3.17
2019-04-27T14:08:55.886Z,2.30
2019-04-27T14:11:24.419Z,3.00
2019-04-27T14:13:53.033Z,4.20
2019-04-27T14:16:21.541Z,2.90
2019-04-27T14:18:50.020Z,2.70
2019-04-27T14:21:18.540Z,2.97
2019-04-27T14:23:48.470Z,3.30
2019-04-27T14:26:18.460Z,3.20
2019-04-27T14:28:48.108Z,3.23
2019-04-27T14:31:18.835Z,2.90
2019-04-27T14:33:48.368Z,3.80
2019-04-27T14:36:18.236Z,4.17
2019-04-27T14:38:47.956Z,3.07
2019-04-27T14:41:16.932Z,3.33
2019-04-27T14:43:45.440Z,3.93
2019-04-27T14:46:14.370Z,3.50
2019-04-27T14:48:42.627Z,4.50
2019-04-27T14:51:11.194Z,4.10
2019-04-27T14:53:39.784Z,4.00
2019-04-27T14:56:08.816Z,3.90
2019-04-27T14:58:37.515Z,3.30
2019-04-27T15:01:06.073Z,4.10
2019-04-27T15:03:34.238Z,3.47
2019-04-27T15:06:02.797Z,3.23
2019-04-27T15:08:31.324Z,4.17
2019-04-27T15:10:59.886Z,3.23
2019-04-27T15:13:28.622Z,3.00
2019-04-27T15:15:57.191Z,3.40
2019-04-27T15:18:29.601Z,3.93
2019-04-27T15:20:58.539Z,2.90
2019-04-27T15:23:30.892Z,3.47
2019-04-27T15:25:58.025Z,3.50
2019-04-27T15:28:28.187Z,3.30
2019-04-27T15:30:59.511Z,2.97
2019-04-27T15:33:46.809Z,2.93
2019-04-27T15:36:33.583Z,3.00
2019-04-27T15:39:07.900Z,3.17
2019-04-27T15:41:38.358Z,3.00
2019-04-27T15:44:09.295Z,3.17
2019-04-27T15:46:39.004Z,3.17
2019-04-27T15:49:11.375Z,3.03
2019-04-27T15:51:38.336Z,2.97
2019-04-27T15:54:07.019Z,3.57
2019-04-27T15:56:36.940Z,3.87
2019-04-27T15:59:05.803Z,3.20
2019-04-27T16:01:35.777Z,3.87
2019-04-27T16:04:07.580Z,3.40
2019-04-27T16:06:35.252Z,3.70
2019-04-27T16:09:07.703Z,3.70
2019-04-27T16:11:36.279Z,3.50
2019-04-27T16:14:06.638Z,3.67
2019-04-27T16:16:35.356Z,3.70
2019-04-27T16:19:09.030Z,3.63
2019-04-27T16:21:34.843Z,3.63
2019-04-27T16:24:03.638Z,4.63
2019-04-27T16:26:32.126Z,4.17
2019-04-27T16:29:00.803Z,4.50
2019-04-27T16:31:32.820Z,5.63
2019-04-27T16:34:02.771Z,4.80
2019-04-27T16:36:30.106Z,5.00
2019-04-27T16:39:03.637Z,5.13
2019-04-27T16:41:33.116Z,5.77
2019-04-27T16:44:02.275Z,3.83
2019-04-27T16:46:29.795Z,3.47
2019-04-27T16:48:59.484Z,5.63
2019-04-27T16:51:29.708Z,3.23
2019-04-27T16:53:58.422Z,3.30
2019-04-27T16:56:28.487Z,3.57
2019-04-27T16:59:05.368Z,4.37
2019-04-27T17:01:30.344Z,6.87
2019-04-27T17:03:59.334Z,4.00
2019-04-27T17:06:29.549Z,4.33
2019-04-27T17:09:05.464Z,3.93
2019-04-27T17:11:29.741Z,3.43
2019-04-27T17:13:59.762Z,3.67
2019-04-27T17:16:45.802Z,4.17
2019-04-27T17:19:15.589Z,3.27
2019-04-27T17:21:43.778Z,3.33
2019-04-27T17:24:12.003Z,3.63
2019-04-27T17:26:43.449Z,3.83
2019-04-27T17:29:16.694Z,3.70
2019-04-27T17:31:43.231Z,4.73
2019-04-27T17:34:11.395Z,3.37
2019-04-27T17:36:40.260Z,3.90
2019-04-27T17:39:09.050Z,3.90
2019-04-27T17:41:41.702Z,4.50
2019-04-27T17:44:08.538Z,4.60
2019-04-27T17:46:38.465Z,4.37
2019-04-27T17:49:08.432Z,3.50
2019-04-27T17:51:42.985Z,3.33
2019-04-27T17:54:07.990Z,3.90
2019-04-27T17:56:48.047Z,3.40
2019-04-27T17:59:10.328Z,3.80
2019-04-27T18:01:36.492Z,3.40
2019-04-27T18:04:06.602Z,3.77
2019-04-27T18:06:34.819Z,4.40
2019-04-27T18:09:05.071Z,3.67
2019-04-27T18:11:37.258Z,4.13
2019-04-27T18:14:03.287Z,3.50
2019-04-27T18:16:34.375Z,4.00
2019-04-27T18:19:07.877Z,3.60
2019-04-27T18:21:34.579Z,3.90
2019-04-27T18:24:04.858Z,3.73
2019-04-27T18:26:46.994Z,4.67
2019-04-27T18:29:05.038Z,3.97
2019-04-27T18:31:33.910Z,3.90
2019-04-27T18:34:02.472Z,3.20
2019-04-27T18:36:30.936Z,3.92
2019-04-27T18:38:59.372Z,3.72
2019-04-27T18:41:28.784Z,4.47
2019-04-27T18:43:59.936Z,3.30
2019-04-27T18:46:28.278Z,4.47
2019-04-27T18:48:58.599Z,4.60
2019-04-27T18:51:38.421Z,3.62
2019-04-27T18:54:08.121Z,4.33
2019-04-27T18:56:41.606Z,4.70
2019-04-27T18:59:09.958Z,3.98
2019-04-27T19:01:38.448Z,4.33
2019-04-27T19:04:08.629Z,3.60
2019-04-27T19:06:38.996Z,4.53
2019-04-27T19:09:08.325Z,4.92
2019-04-27T19:11:38.334Z,5.72
2019-04-27T19:14:08.295Z,5.28
2019-04-27T19:16:42.420Z,5.35
2019-04-27T19:19:11.253Z,5.37
2019-04-27T19:21:40.012Z,4.92
2019-04-27T19:24:09.049Z,4.30
2019-04-27T19:26:50.859Z,5.53
2019-04-27T19:29:23.743Z,5.25
2019-04-27T19:31:58.533Z,5.67
2019-04-27T19:34:28.615Z,7.33
2019-04-27T19:37:00.759Z,5.03
2019-04-27T19:39:29.577Z,5.28
2019-04-27T19:42:03.742Z,5.03
2019-04-27T19:44:29.883Z,5.80
2019-04-27T19:47:00.247Z,5.45
2019-04-27T19:49:31.603Z,5.20
2019-04-27T19:51:59.374Z,4.85
2019-04-27T19:54:30.190Z,5.80
2019-04-27T19:56:59.550Z,5.45
2019-04-27T19:59:33.058Z,6.45
2019-04-27T20:02:03.543Z,5.10
2019-04-27T20:04:33.977Z,5.10
2019-04-27T20:07:03.030Z,4.70
2019-04-27T20:09:33.201Z,5.70
2019-04-27T20:12:02.881Z,6.75
2019-04-27T20:14:33.086Z,6.15
2019-04-27T20:17:01.533Z,5.85
2019-04-27T20:19:31.505Z,7.15
2019-04-27T20:22:00.852Z,6.60
2019-04-27T20:24:33.561Z,6.20
2019-04-27T20:27:02.678Z,5.97
2019-04-27T20:29:31.739Z,6.35
2019-04-27T20:32:01.212Z,6.33
2019-04-27T20:34:31.091Z,6.20
2019-04-27T20:37:01.652Z,7.37
2019-04-27T20:39:30.170Z,7.45
2019-04-27T20:41:58.943Z,6.90
2019-04-27T20:44:27.726Z,6.35
2019-04-27T20:46:56.169Z,5.83
2019-04-27T20:49:24.623Z,5.47
2019-04-27T20:51:57.783Z,6.20
2019-04-27T20:54:26.243Z,6.20
2019-04-27T20:56:57.195Z,5.53
2019-04-27T20:59:24.911Z,5.33
2019-04-27T21:01:53.407Z,6.53
2019-04-27T21:04:23.522Z,6.35
2019-04-27T21:06:53.594Z,6.17
2019-04-27T21:09:22.093Z,6.67
2019-04-27T21:11:50.562Z,7.17
2019-04-27T21:14:21.553Z,6.80
2019-04-27T21:16:51.537Z,6.55
2019-04-27T21:19:21.065Z,6.17
2019-04-27T21:21:51.084Z,6.20
2019-04-27T21:24:20.763Z,6.05
2019-04-27T21:26:51.275Z,6.80
2019-04-27T21:29:20.929Z,5.97
2019-04-27T21:31:51.877Z,6.53
2019-04-27T21:34:20.138Z,7.75
2019-04-27T21:36:48.667Z,5.87
2019-04-27T21:39:17.092Z,5.30
2019-04-27T21:41:45.538Z,7.55
2019-04-27T21:44:13.967Z,4.90
2019-04-27T21:46:42.419Z,4.70
2019-04-27T21:49:12.670Z,5.15
2019-04-27T21:52:01.218Z,5.97
2019-04-27T21:54:30.888Z,6.37
2019-04-27T21:57:00.268Z,6.15
2019-04-27T21:59:29.070Z,5.55
2019-04-27T22:02:01.678Z,6.85
2019-04-27T22:04:31.514Z,7.15
2019-04-27T22:07:01.424Z,7.17
2019-04-27T22:09:30.344Z,6.78
2019-04-27T22:12:00.638Z,7.53
2019-04-27T22:14:29.677Z,7.42
2019-04-27T22:16:58.517Z,7.45
2019-04-27T22:19:26.944Z,6.90
2019-04-27T22:21:55.729Z,7.78
2019-04-27T22:24:28.528Z,8.08
2019-04-27T22:26:56.980Z,6.80
2019-04-27T22:29:25.769Z,8.25
2019-04-27T22:31:54.675Z,7.42
2019-04-27T22:34:23.121Z,8.28
2019-04-27T22:36:51.594Z,7.25
2019-04-27T22:39:21.666Z,6.65
2019-04-27T22:41:58.139Z,7.22
2019-04-27T22:44:37.628Z,7.33
2019-04-27T22:47:06.167Z,8.13
2019-04-27T22:49:34.989Z,6.78
2019-04-27T22:52:03.663Z,7.08
2019-04-27T22:54:32.158Z,7.35
2019-04-27T22:57:02.585Z,7.03
2019-04-27T22:59:32.728Z,7.67
2019-04-27T23:02:08.799Z,6.87
2019-04-27T23:04:47.750Z,6.35
2019-04-27T23:07:16.633Z,7.55
2019-04-27T23:09:45.055Z,6.55
2019-04-27T23:12:13.791Z,6.70
2019-04-27T23:14:42.574Z,7.90
2019-04-27T23:17:18.731Z,6.65
2019-04-27T23:19:47.565Z,6.62
2019-04-27T23:22:16.029Z,6.97
2019-04-27T23:24:44.466Z,6.92
2019-04-27T23:27:15.129Z,6.30
2019-04-27T23:29:43.085Z,7.05
2019-04-27T23:32:16.206Z,7.15
2019-04-27T23:34:45.039Z,6.80
2019-04-27T23:37:13.465Z,7.25
2019-04-27T23:39:41.927Z,7.40
2019-04-27T23:42:11.609Z,6.05
2019-04-27T23:44:40.147Z,7.05
2019-04-27T23:47:09.055Z,7.25
2019-04-27T23:49:37.506Z,7.37
2019-04-27T23:52:07.570Z,6.30
2019-04-27T23:54:36.033Z,7.67
2019-04-27T23:57:04.871Z,7.75
2019-04-27T23:59:33.432Z,8.05
